sensor_id;sensor_type;location;lat;lon;timestamp;temperature;humidity
11087;DHT22;5597;47.588;9.642;2022-08-19T00:01:20;18.30;99.90
11087;DHT22;5597;47.588;9.642;2022-08-19T00:03:46;18.30;99.90
11087;DHT22;5597;47.588;9.642;2022-08-19T00:06:13;18.30;99.90
11087;DHT22;5597;47.588;9.642;2022-08-19T00:08:39;18.30;99.90
11087;DHT22;5597;47.588;9.642;2022-08-19T00:11:05;18.30;99.90
11087;DHT22;5597;47.588;9.642;2022-08-19T00:13:30;18.30;99.90
11087;DHT22;5597;47.588;9.642;2022-08-19T00:15:56;18.30;99.90
11087;DHT22;5597;47.588;9.642;2022-08-19T00:18:24;18.20;99.90
11087;DHT22;5597;47.588;9.642;2022-08-19T00:20:49;18.20;99.90
11087;DHT22;5597;47.588;9.642;2022-08-19T00:23:15;18.30;99.90
11087;DHT22;5597;47.588;9.642;2022-08-19T00:25:41;18.30;99.90
11087;DHT22;5597;47.588;9.642;2022-08-19T00:28:06;18.30;99.90
11087;DHT22;5597;47.588;9.642;2022-08-19T00:30:32;18.20;99.90
11087;DHT22;5597;47.588;9.642;2022-08-19T00:32:58;18.20;99.90
11087;DHT22;5597;47.588;9.642;2022-08-19T00:35:24;18.20;99.90
11087;DHT22;5597;47.588;9.642;2022-08-19T00:37:50;18.20;99.90
11087;DHT22;5597;47.588;9.642;2022-08-19T00:40:17;18.20;99.90
11087;DHT22;5597;47.588;9.642;2022-08-19T00:42:43;18.10;99.90
11087;DHT22;5597;47.588;9.642;2022-08-19T00:45:16;18.20;99.90
11087;DHT22;5597;47.588;9.642;2022-08-19T00:47:44;18.20;99.90
11087;DHT22;5597;47.588;9.642;2022-08-19T00:50:12;18.10;99.90
11087;DHT22;5597;47.588;9.642;2022-08-19T00:52:42;18.20;99.90
11087;DHT22;5597;47.588;9.642;2022-08-19T00:55:15;18.10;99.90
11087;DHT22;5597;47.588;9.642;2022-08-19T00:57:45;18.10;99.90
11087;DHT22;5597;47.588;9.642;2022-08-19T01:00:15;18.10;99.90
11087;DHT22;5597;47.588;9.642;2022-08-19T01:02:41;18.10;99.90
11087;DHT22;5597;47.588;9.642;2022-08-19T01:05:22;18.10;99.90
11087;DHT22;5597;47.588;9.642;2022-08-19T01:07:48;18.10;99.90
11087;DHT22;5597;47.588;9.642;2022-08-19T01:10:21;18.10;99.90
11087;DHT22;5597;47.588;9.642;2022-08-19T01:12:49;18.10;99.90
11087;DHT22;5597;47.588;9.642;2022-08-19T01:15:20;18.10;99.90
11087;DHT22;5597;47.588;9.642;2022-08-19T01:17:47;18.10;99.90
11087;DHT22;5597;47.588;9.642;2022-08-19T01:20:16;18.00;99.90
11087;DHT22;5597;47.588;9.642;2022-08-19T01:22:49;17.90;99.90
11087;DHT22;5597;47.588;9.642;2022-08-19T01:25:17;17.90;99.90
11087;DHT22;5597;47.588;9.642;2022-08-19T01:27:47;17.90;99.90
11087;DHT22;5597;47.588;9.642;2022-08-19T01:30:19;17.80;99.90
11087;DHT22;5597;47.588;9.642;2022-08-19T01:32:45;17.80;99.90
11087;DHT22;5597;47.588;9.642;2022-08-19T01:35:12;17.70;99.90
11087;DHT22;5597;47.588;9.642;2022-08-19T01:37:45;17.60;99.90
11087;DHT22;5597;47.588;9.642;2022-08-19T01:40:11;17.60;99.90
11087;DHT22;5597;47.588;9.642;2022-08-19T01:42:37;17.60;99.90
11087;DHT22;5597;47.588;9.642;2022-08-19T01:45:04;17.50;99.90
11087;DHT22;5597;47.588;9.642;2022-08-19T01:47:30;17.50;99.90
11087;DHT22;5597;47.588;9.642;2022-08-19T01:49:55;17.50;99.90
11087;DHT22;5597;47.588;9.642;2022-08-19T01:52:23;17.50;99.90
11087;DHT22;5597;47.588;9.642;2022-08-19T01:54:48;17.40;99.90
11087;DHT22;5597;47.588;9.642;2022-08-19T01:57:14;17.40;99.90
11087;DHT22;5597;47.588;9.642;2022-08-19T01:59:42;17.40;99.90
11087;DHT22;5597;47.588;9.642;2022-08-19T02:02:08;17.30;99.90
11087;DHT22;5597;47.588;9.642;2022-08-19T02:04:34;17.30;99.90
11087;DHT22;5597;47.588;9.642;2022-08-19T02:07:00;17.30;99.90
11087;DHT22;5597;47.588;9.642;2022-08-19T02:09:26;17.30;99.90
11087;DHT22;5597;47.588;9.642;2022-08-19T02:11:51;17.30;99.90
11087;DHT22;5597;47.588;9.642;2022-08-19T02:14:17;17.30;99.90
11087;DHT22;5597;47.588;9.642;2022-08-19T02:16:43;17.30;99.90
11087;DHT22;5597;47.588;9.642;2022-08-19T02:19:08;17.30;99.90
11087;DHT22;5597;47.588;9.642;2022-08-19T02:21:35;17.20;99.90
11087;DHT22;5597;47.588;9.642;2022-08-19T02:24:02;17.20;99.90
11087;DHT22;5597;47.588;9.642;2022-08-19T02:26:28;17.20;99.90
11087;DHT22;5597;47.588;9.642;2022-08-19T02:28:55;17.20;99.90
11087;DHT22;5597;47.588;9.642;2022-08-19T02:31:23;17.20;99.90
11087;DHT22;5597;47.588;9.642;2022-08-19T02:33:49;17.20;99.90
11087;DHT22;5597;47.588;9.642;2022-08-19T02:36:16;17.20;99.90
11087;DHT22;5597;47.588;9.642;2022-08-19T02:38:43;17.20;99.90
11087;DHT22;5597;47.588;9.642;2022-08-19T02:41:16;17.20;99.90
11087;DHT22;5597;47.588;9.642;2022-08-19T02:43:43;17.10;99.90
11087;DHT22;5597;47.588;9.642;2022-08-19T02:46:23;17.20;99.90
11087;DHT22;5597;47.588;9.642;2022-08-19T02:48:50;17.10;99.90
11087;DHT22;5597;47.588;9.642;2022-08-19T02:51:21;17.10;99.90
11087;DHT22;5597;47.588;9.642;2022-08-19T02:53:47;17.10;99.90
11087;DHT22;5597;47.588;9.642;2022-08-19T02:56:13;17.00;99.90
11087;DHT22;5597;47.588;9.642;2022-08-19T02:58:38;17.00;99.90
11087;DHT22;5597;47.588;9.642;2022-08-19T03:01:04;17.00;99.90
11087;DHT22;5597;47.588;9.642;2022-08-19T03:03:30;17.00;99.90
11087;DHT22;5597;47.588;9.642;2022-08-19T03:06:12;17.00;99.90
11087;DHT22;5597;47.588;9.642;2022-08-19T03:08:40;17.00;99.90
11087;DHT22;5597;47.588;9.642;2022-08-19T03:11:10;17.00;99.90
11087;DHT22;5597;47.588;9.642;2022-08-19T03:13:37;17.00;99.90
11087;DHT22;5597;47.588;9.642;2022-08-19T03:16:05;17.10;99.90
11087;DHT22;5597;47.588;9.642;2022-08-19T03:18:31;17.10;99.90
11087;DHT22;5597;47.588;9.642;2022-08-19T03:20:56;17.10;99.90
11087;DHT22;5597;47.588;9.642;2022-08-19T03:23:22;17.10;99.90
11087;DHT22;5597;47.588;9.642;2022-08-19T03:25:50;17.10;99.90
11087;DHT22;5597;47.588;9.642;2022-08-19T03:28:16;17.10;99.90
11087;DHT22;5597;47.588;9.642;2022-08-19T03:30:54;17.10;99.90
11087;DHT22;5597;47.588;9.642;2022-08-19T03:33:22;17.10;99.90
11087;DHT22;5597;47.588;9.642;2022-08-19T03:36:09;17.20;99.90
11087;DHT22;5597;47.588;9.642;2022-08-19T03:38:38;17.20;99.90
11087;DHT22;5597;47.588;9.642;2022-08-19T03:41:05;17.20;99.90
11087;DHT22;5597;47.588;9.642;2022-08-19T03:43:33;17.20;99.90
11087;DHT22;5597;47.588;9.642;2022-08-19T03:46:01;17.30;99.90
11087;DHT22;5597;47.588;9.642;2022-08-19T03:48:27;17.20;99.90
11087;DHT22;5597;47.588;9.642;2022-08-19T03:50:53;17.30;99.90
11087;DHT22;5597;47.588;9.642;2022-08-19T03:53:19;17.20;99.90
11087;DHT22;5597;47.588;9.642;2022-08-19T03:55:44;17.30;99.90
11087;DHT22;5597;47.588;9.642;2022-08-19T03:58:10;17.20;99.90
11087;DHT22;5597;47.588;9.642;2022-08-19T04:00:36;17.20;99.90
11087;DHT22;5597;47.588;9.642;2022-08-19T04:03:02;17.20;99.90
11087;DHT22;5597;47.588;9.642;2022-08-19T04:05:28;17.20;99.90
11087;DHT22;5597;47.588;9.642;2022-08-19T04:07:54;17.20;99.90
11087;DHT22;5597;47.588;9.642;2022-08-19T04:10:23;17.20;99.90
11087;DHT22;5597;47.588;9.642;2022-08-19T04:12:49;17.20;99.90
11087;DHT22;5597;47.588;9.642;2022-08-19T04:15:15;17.20;99.90
11087;DHT22;5597;47.588;9.642;2022-08-19T04:17:40;17.20;99.90
11087;DHT22;5597;47.588;9.642;2022-08-19T04:20:09;17.20;99.90
11087;DHT22;5597;47.588;9.642;2022-08-19T04:22:35;17.20;99.90
11087;DHT22;5597;47.588;9.642;2022-08-19T04:25:00;17.20;99.90
11087;DHT22;5597;47.588;9.642;2022-08-19T04:27:26;17.20;99.90
11087;DHT22;5597;47.588;9.642;2022-08-19T04:29:52;17.20;99.90
11087;DHT22;5597;47.588;9.642;2022-08-19T04:32:19;17.20;99.90
11087;DHT22;5597;47.588;9.642;2022-08-19T04:34:44;17.20;99.90
11087;DHT22;5597;47.588;9.642;2022-08-19T04:37:10;17.20;99.90
11087;DHT22;5597;47.588;9.642;2022-08-19T04:39:37;17.30;99.90
11087;DHT22;5597;47.588;9.642;2022-08-19T04:42:22;17.30;99.90
11087;DHT22;5597;47.588;9.642;2022-08-19T04:45:08;17.30;99.90
11087;DHT22;5597;47.588;9.642;2022-08-19T04:47:36;17.40;99.90
11087;DHT22;5597;47.588;9.642;2022-08-19T04:50:02;17.40;99.90
11087;DHT22;5597;47.588;9.642;2022-08-19T04:52:28;17.40;99.90
11087;DHT22;5597;47.588;9.642;2022-08-19T04:54:56;17.40;99.90
11087;DHT22;5597;47.588;9.642;2022-08-19T04:57:22;17.40;99.90
11087;DHT22;5597;47.588;9.642;2022-08-19T04:59:48;17.40;99.90
11087;DHT22;5597;47.588;9.642;2022-08-19T05:02:13;17.40;99.90
11087;DHT22;5597;47.588;9.642;2022-08-19T05:04:39;17.40;99.90
11087;DHT22;5597;47.588;9.642;2022-08-19T05:07:06;17.40;99.90
11087;DHT22;5597;47.588;9.642;2022-08-19T05:09:32;17.40;99.90
11087;DHT22;5597;47.588;9.642;2022-08-19T05:11:58;17.40;99.90
11087;DHT22;5597;47.588;9.642;2022-08-19T05:14:24;17.40;99.90
11087;DHT22;5597;47.588;9.642;2022-08-19T05:16:50;17.40;99.90
11087;DHT22;5597;47.588;9.642;2022-08-19T05:19:16;17.40;99.90
11087;DHT22;5597;47.588;9.642;2022-08-19T05:22:00;17.40;99.90
11087;DHT22;5597;47.588;9.642;2022-08-19T05:24:44;17.50;99.90
11087;DHT22;5597;47.588;9.642;2022-08-19T05:27:10;17.50;99.90
11087;DHT22;5597;47.588;9.642;2022-08-19T05:29:36;17.50;99.90
11087;DHT22;5597;47.588;9.642;2022-08-19T05:32:04;17.50;99.90
11087;DHT22;5597;47.588;9.642;2022-08-19T05:34:31;17.50;99.90
11087;DHT22;5597;47.588;9.642;2022-08-19T05:36:58;17.50;99.90
11087;DHT22;5597;47.588;9.642;2022-08-19T05:39:29;17.50;99.90
11087;DHT22;5597;47.588;9.642;2022-08-19T05:41:58;17.50;99.90
11087;DHT22;5597;47.588;9.642;2022-08-19T05:44:27;17.50;99.90
11087;DHT22;5597;47.588;9.642;2022-08-19T05:46:57;17.50;99.90
11087;DHT22;5597;47.588;9.642;2022-08-19T05:49:23;17.50;99.90
11087;DHT22;5597;47.588;9.642;2022-08-19T05:51:50;17.50;99.90
11087;DHT22;5597;47.588;9.642;2022-08-19T05:54:17;17.50;99.90
11087;DHT22;5597;47.588;9.642;2022-08-19T05:56:43;17.60;99.90
11087;DHT22;5597;47.588;9.642;2022-08-19T05:59:10;17.50;99.90
11087;DHT22;5597;47.588;9.642;2022-08-19T06:01:38;17.50;99.90
11087;DHT22;5597;47.588;9.642;2022-08-19T06:04:04;17.60;99.90
11087;DHT22;5597;47.588;9.642;2022-08-19T06:06:30;17.60;99.90
11087;DHT22;5597;47.588;9.642;2022-08-19T06:08:56;17.60;99.90
11087;DHT22;5597;47.588;9.642;2022-08-19T06:14:03;17.70;99.90
11087;DHT22;5597;47.588;9.642;2022-08-19T06:16:29;17.70;99.90
11087;DHT22;5597;47.588;9.642;2022-08-19T06:18:59;17.70;99.90
11087;DHT22;5597;47.588;9.642;2022-08-19T06:21:27;17.70;99.90
11087;DHT22;5597;47.588;9.642;2022-08-19T06:23:54;17.70;99.90
11087;DHT22;5597;47.588;9.642;2022-08-19T06:26:21;17.70;99.90
11087;DHT22;5597;47.588;9.642;2022-08-19T06:28:47;17.70;99.90
11087;DHT22;5597;47.588;9.642;2022-08-19T06:31:18;17.80;99.90
11087;DHT22;5597;47.588;9.642;2022-08-19T06:33:45;17.80;99.90
11087;DHT22;5597;47.588;9.642;2022-08-19T06:36:25;17.80;99.90
11087;DHT22;5597;47.588;9.642;2022-08-19T06:38:55;17.80;99.90
11087;DHT22;5597;47.588;9.642;2022-08-19T06:41:23;17.80;99.90
11087;DHT22;5597;47.588;9.642;2022-08-19T06:43:49;17.80;99.90
11087;DHT22;5597;47.588;9.642;2022-08-19T06:46:16;17.80;99.90
11087;DHT22;5597;47.588;9.642;2022-08-19T06:48:42;17.80;99.90
11087;DHT22;5597;47.588;9.642;2022-08-19T06:51:07;17.80;99.90
11087;DHT22;5597;47.588;9.642;2022-08-19T06:53:33;17.80;99.90
11087;DHT22;5597;47.588;9.642;2022-08-19T06:55:59;17.80;99.90
11087;DHT22;5597;47.588;9.642;2022-08-19T06:58:28;17.80;99.90
11087;DHT22;5597;47.588;9.642;2022-08-19T07:01:03;17.80;99.90
11087;DHT22;5597;47.588;9.642;2022-08-19T07:03:31;17.80;99.90
11087;DHT22;5597;47.588;9.642;2022-08-19T07:05:58;17.70;99.90
11087;DHT22;5597;47.588;9.642;2022-08-19T07:08:27;17.70;99.90
11087;DHT22;5597;47.588;9.642;2022-08-19T07:10:53;17.70;99.90
11087;DHT22;5597;47.588;9.642;2022-08-19T07:13:18;17.70;99.90
11087;DHT22;5597;47.588;9.642;2022-08-19T07:15:44;17.70;99.90
11087;DHT22;5597;47.588;9.642;2022-08-19T07:18:11;17.70;99.90
11087;DHT22;5597;47.588;9.642;2022-08-19T07:20:37;17.70;99.90
11087;DHT22;5597;47.588;9.642;2022-08-19T07:23:04;17.70;99.90
11087;DHT22;5597;47.588;9.642;2022-08-19T07:25:29;17.80;99.90
11087;DHT22;5597;47.588;9.642;2022-08-19T07:27:55;17.80;99.90
11087;DHT22;5597;47.588;9.642;2022-08-19T07:30:21;17.80;99.90
11087;DHT22;5597;47.588;9.642;2022-08-19T07:32:47;17.70;99.90
11087;DHT22;5597;47.588;9.642;2022-08-19T07:35:13;17.80;99.90
11087;DHT22;5597;47.588;9.642;2022-08-19T07:37:39;17.80;99.90
11087;DHT22;5597;47.588;9.642;2022-08-19T07:40:09;17.80;99.90
11087;DHT22;5597;47.588;9.642;2022-08-19T07:42:35;17.80;99.90
11087;DHT22;5597;47.588;9.642;2022-08-19T07:45:01;17.80;99.90
11087;DHT22;5597;47.588;9.642;2022-08-19T07:47:26;17.80;99.90
11087;DHT22;5597;47.588;9.642;2022-08-19T07:49:53;17.90;99.90
11087;DHT22;5597;47.588;9.642;2022-08-19T07:52:19;17.90;99.90
11087;DHT22;5597;47.588;9.642;2022-08-19T07:54:45;17.90;99.90
11087;DHT22;5597;47.588;9.642;2022-08-19T07:57:11;17.90;99.90
11087;DHT22;5597;47.588;9.642;2022-08-19T07:59:36;17.90;99.90
11087;DHT22;5597;47.588;9.642;2022-08-19T08:02:02;17.90;99.90
11087;DHT22;5597;47.588;9.642;2022-08-19T08:04:29;18.00;99.90
11087;DHT22;5597;47.588;9.642;2022-08-19T08:07:14;17.90;99.90
11087;DHT22;5597;47.588;9.642;2022-08-19T08:09:59;18.00;99.90
11087;DHT22;5597;47.588;9.642;2022-08-19T08:12:29;18.00;99.90
11087;DHT22;5597;47.588;9.642;2022-08-19T08:14:59;18.10;99.90
11087;DHT22;5597;47.588;9.642;2022-08-19T08:17:28;18.10;99.90
11087;DHT22;5597;47.588;9.642;2022-08-19T08:19:54;18.10;99.90
11087;DHT22;5597;47.588;9.642;2022-08-19T08:22:22;18.10;99.90
11087;DHT22;5597;47.588;9.642;2022-08-19T08:25:10;18.10;99.90
11087;DHT22;5597;47.588;9.642;2022-08-19T08:27:37;18.20;99.90
11087;DHT22;5597;47.588;9.642;2022-08-19T08:30:15;18.20;99.90
11087;DHT22;5597;47.588;9.642;2022-08-19T08:32:41;18.10;99.90
11087;DHT22;5597;47.588;9.642;2022-08-19T08:35:10;18.20;99.90
11087;DHT22;5597;47.588;9.642;2022-08-19T08:37:37;18.10;99.90
11087;DHT22;5597;47.588;9.642;2022-08-19T08:40:06;18.20;99.90
11087;DHT22;5597;47.588;9.642;2022-08-19T08:42:36;18.20;99.90
11087;DHT22;5597;47.588;9.642;2022-08-19T08:45:09;18.20;99.90
11087;DHT22;5597;47.588;9.642;2022-08-19T08:47:40;18.20;99.90
11087;DHT22;5597;47.588;9.642;2022-08-19T08:50:13;18.20;99.90
11087;DHT22;5597;47.588;9.642;2022-08-19T08:52:44;18.30;99.90
11087;DHT22;5597;47.588;9.642;2022-08-19T08:55:24;18.20;99.90
11087;DHT22;5597;47.588;9.642;2022-08-19T08:57:58;18.20;99.90
11087;DHT22;5597;47.588;9.642;2022-08-19T09:00:38;18.20;99.90
11087;DHT22;5597;47.588;9.642;2022-08-19T09:03:11;18.20;99.90
11087;DHT22;5597;47.588;9.642;2022-08-19T09:08:45;18.20;99.90
11087;DHT22;5597;47.588;9.642;2022-08-19T09:11:33;18.20;99.90
11087;DHT22;5597;47.588;9.642;2022-08-19T09:14:17;18.20;99.90
11087;DHT22;5597;47.588;9.642;2022-08-19T09:16:43;18.10;99.90
11087;DHT22;5597;47.588;9.642;2022-08-19T09:19:09;18.20;99.90
11087;DHT22;5597;47.588;9.642;2022-08-19T09:21:36;18.20;99.90
11087;DHT22;5597;47.588;9.642;2022-08-19T09:24:03;18.20;99.90
11087;DHT22;5597;47.588;9.642;2022-08-19T09:26:31;18.20;99.90
11087;DHT22;5597;47.588;9.642;2022-08-19T09:28:58;18.20;99.90
11087;DHT22;5597;47.588;9.642;2022-08-19T09:31:27;18.20;99.90
11087;DHT22;5597;47.588;9.642;2022-08-19T09:33:53;18.20;99.90
11087;DHT22;5597;47.588;9.642;2022-08-19T09:36:22;18.20;99.90
11087;DHT22;5597;47.588;9.642;2022-08-19T09:38:48;18.20;99.90
11087;DHT22;5597;47.588;9.642;2022-08-19T09:41:18;18.20;99.90
11087;DHT22;5597;47.588;9.642;2022-08-19T09:43:49;18.20;99.90
11087;DHT22;5597;47.588;9.642;2022-08-19T09:46:18;18.20;99.90
11087;DHT22;5597;47.588;9.642;2022-08-19T09:48:47;18.20;99.90
11087;DHT22;5597;47.588;9.642;2022-08-19T09:51:23;18.20;99.90
11087;DHT22;5597;47.588;9.642;2022-08-19T09:53:50;18.20;99.90
11087;DHT22;5597;47.588;9.642;2022-08-19T09:56:18;18.20;99.90
11087;DHT22;5597;47.588;9.642;2022-08-19T09:58:44;18.20;99.90
11087;DHT22;5597;47.588;9.642;2022-08-19T10:01:27;18.20;99.90
11087;DHT22;5597;47.588;9.642;2022-08-19T10:03:56;18.20;99.90
11087;DHT22;5597;47.588;9.642;2022-08-19T10:06:24;18.20;99.90
11087;DHT22;5597;47.588;9.642;2022-08-19T10:08:52;18.20;99.90
11087;DHT22;5597;47.588;9.642;2022-08-19T10:11:19;18.20;99.90
11087;DHT22;5597;47.588;9.642;2022-08-19T10:13:45;18.10;99.90
11087;DHT22;5597;47.588;9.642;2022-08-19T10:16:15;18.10;99.90
11087;DHT22;5597;47.588;9.642;2022-08-19T10:18:43;18.10;99.90
11087;DHT22;5597;47.588;9.642;2022-08-19T10:21:21;18.10;99.90
11087;DHT22;5597;47.588;9.642;2022-08-19T10:23:49;18.10;99.90
11087;DHT22;5597;47.588;9.642;2022-08-19T10:26:19;18.10;99.90
11087;DHT22;5597;47.588;9.642;2022-08-19T10:28:44;18.10;99.90
11087;DHT22;5597;47.588;9.642;2022-08-19T10:31:13;18.10;99.90
11087;DHT22;5597;47.588;9.642;2022-08-19T10:33:40;18.10;99.90
11087;DHT22;5597;47.588;9.642;2022-08-19T10:36:10;18.10;99.90
11087;DHT22;5597;47.588;9.642;2022-08-19T10:38:36;18.10;99.90
11087;DHT22;5597;47.588;9.642;2022-08-19T10:41:14;18.10;99.90
11087;DHT22;5597;47.588;9.642;2022-08-19T10:43:41;18.10;99.90
11087;DHT22;5597;47.588;9.642;2022-08-19T10:46:12;18.10;99.90
11087;DHT22;5597;47.588;9.642;2022-08-19T10:48:39;18.10;99.90
11087;DHT22;5597;47.588;9.642;2022-08-19T10:51:05;18.10;99.90
11087;DHT22;5597;47.588;9.642;2022-08-19T10:53:57;18.20;99.90
11087;DHT22;5597;47.588;9.642;2022-08-19T10:56:24;18.10;99.90
11087;DHT22;5597;47.588;9.642;2022-08-19T10:59:08;18.10;99.90
11087;DHT22;5597;47.588;9.642;2022-08-19T11:01:35;18.10;99.90
11087;DHT22;5597;47.588;9.642;2022-08-19T11:04:02;18.10;99.90
11087;DHT22;5597;47.588;9.642;2022-08-19T11:06:28;18.10;99.90
11087;DHT22;5597;47.588;9.642;2022-08-19T11:08:55;18.10;99.90
11087;DHT22;5597;47.588;9.642;2022-08-19T11:11:21;18.10;99.90
11087;DHT22;5597;47.588;9.642;2022-08-19T11:13:48;18.10;99.90
11087;DHT22;5597;47.588;9.642;2022-08-19T11:16:20;18.20;99.90
11087;DHT22;5597;47.588;9.642;2022-08-19T11:18:52;18.20;99.90
11087;DHT22;5597;47.588;9.642;2022-08-19T11:21:24;18.10;99.90
11087;DHT22;5597;47.588;9.642;2022-08-19T11:23:54;18.10;99.90
11087;DHT22;5597;47.588;9.642;2022-08-19T11:26:21;18.10;99.90
11087;DHT22;5597;47.588;9.642;2022-08-19T11:28:47;18.10;99.90
11087;DHT22;5597;47.588;9.642;2022-08-19T11:31:16;18.10;99.90
11087;DHT22;5597;47.588;9.642;2022-08-19T11:33:43;18.10;99.90
11087;DHT22;5597;47.588;9.642;2022-08-19T11:36:09;18.00;99.90
11087;DHT22;5597;47.588;9.642;2022-08-19T11:38:35;18.00;99.90
11087;DHT22;5597;47.588;9.642;2022-08-19T11:41:03;18.00;99.90
11087;DHT22;5597;47.588;9.642;2022-08-19T11:43:29;18.00;99.90
11087;DHT22;5597;47.588;9.642;2022-08-19T11:45:57;18.00;99.90
11087;DHT22;5597;47.588;9.642;2022-08-19T11:48:24;18.00;99.90
11087;DHT22;5597;47.588;9.642;2022-08-19T11:50:52;18.10;99.90
11087;DHT22;5597;47.588;9.642;2022-08-19T11:53:19;18.10;99.90
11087;DHT22;5597;47.588;9.642;2022-08-19T11:55:49;18.10;99.90
11087;DHT22;5597;47.588;9.642;2022-08-19T11:58:16;18.10;99.90
11087;DHT22;5597;47.588;9.642;2022-08-19T12:00:43;18.10;99.90
11087;DHT22;5597;47.588;9.642;2022-08-19T12:03:11;18.20;99.90
11087;DHT22;5597;47.588;9.642;2022-08-19T12:05:38;18.20;99.90
11087;DHT22;5597;47.588;9.642;2022-08-19T12:08:06;18.30;99.90
11087;DHT22;5597;47.588;9.642;2022-08-19T12:10:32;18.30;99.90
11087;DHT22;5597;47.588;9.642;2022-08-19T12:12:59;18.30;99.90
11087;DHT22;5597;47.588;9.642;2022-08-19T12:15:25;18.30;99.90
11087;DHT22;5597;47.588;9.642;2022-08-19T12:17:52;18.30;99.90
11087;DHT22;5597;47.588;9.642;2022-08-19T12:20:20;18.30;99.90
11087;DHT22;5597;47.588;9.642;2022-08-19T12:22:46;18.30;99.90
11087;DHT22;5597;47.588;9.642;2022-08-19T12:25:12;18.30;99.90
11087;DHT22;5597;47.588;9.642;2022-08-19T12:27:38;18.30;99.90
11087;DHT22;5597;47.588;9.642;2022-08-19T12:30:05;18.30;99.90
11087;DHT22;5597;47.588;9.642;2022-08-19T12:32:32;18.20;99.90
11087;DHT22;5597;47.588;9.642;2022-08-19T12:34:57;18.30;99.90
11087;DHT22;5597;47.588;9.642;2022-08-19T12:37:23;18.20;99.90
11087;DHT22;5597;47.588;9.642;2022-08-19T12:39:48;18.20;99.90
11087;DHT22;5597;47.588;9.642;2022-08-19T12:42:15;18.20;99.90
11087;DHT22;5597;47.588;9.642;2022-08-19T12:44:42;18.20;99.90
11087;DHT22;5597;47.588;9.642;2022-08-19T12:47:10;18.20;99.90
11087;DHT22;5597;47.588;9.642;2022-08-19T12:49:36;18.20;99.90
11087;DHT22;5597;47.588;9.642;2022-08-19T12:52:05;18.20;99.90
11087;DHT22;5597;47.588;9.642;2022-08-19T12:54:30;18.20;99.90
11087;DHT22;5597;47.588;9.642;2022-08-19T12:56:57;18.20;99.90
11087;DHT22;5597;47.588;9.642;2022-08-19T12:59:23;18.20;99.90
11087;DHT22;5597;47.588;9.642;2022-08-19T13:01:49;18.20;99.90
11087;DHT22;5597;47.588;9.642;2022-08-19T13:04:14;18.20;99.90
11087;DHT22;5597;47.588;9.642;2022-08-19T13:06:42;18.20;99.90
11087;DHT22;5597;47.588;9.642;2022-08-19T13:09:08;18.20;99.90
11087;DHT22;5597;47.588;9.642;2022-08-19T13:11:34;18.30;99.90
11087;DHT22;5597;47.588;9.642;2022-08-19T13:14:01;18.30;99.90
11087;DHT22;5597;47.588;9.642;2022-08-19T13:16:27;18.20;99.90
11087;DHT22;5597;47.588;9.642;2022-08-19T13:18:54;18.30;99.90
11087;DHT22;5597;47.588;9.642;2022-08-19T13:21:22;18.30;99.90
11087;DHT22;5597;47.588;9.642;2022-08-19T13:23:48;18.30;99.90
11087;DHT22;5597;47.588;9.642;2022-08-19T13:26:16;18.30;99.90
11087;DHT22;5597;47.588;9.642;2022-08-19T13:28:42;18.20;99.90
11087;DHT22;5597;47.588;9.642;2022-08-19T13:31:30;18.20;99.90
11087;DHT22;5597;47.588;9.642;2022-08-19T13:34:33;18.20;99.90
11087;DHT22;5597;47.588;9.642;2022-08-19T13:37:01;18.20;99.90
11087;DHT22;5597;47.588;9.642;2022-08-19T13:39:29;18.20;99.90
11087;DHT22;5597;47.588;9.642;2022-08-19T13:41:54;18.20;99.90
11087;DHT22;5597;47.588;9.642;2022-08-19T13:44:20;18.20;99.90
11087;DHT22;5597;47.588;9.642;2022-08-19T13:46:47;18.20;99.90
11087;DHT22;5597;47.588;9.642;2022-08-19T13:49:15;18.10;99.90
11087;DHT22;5597;47.588;9.642;2022-08-19T13:51:42;18.10;99.90
11087;DHT22;5597;47.588;9.642;2022-08-19T13:54:09;18.10;99.90
11087;DHT22;5597;47.588;9.642;2022-08-19T13:56:39;18.10;99.90
11087;DHT22;5597;47.588;9.642;2022-08-19T13:59:05;18.10;99.90
11087;DHT22;5597;47.588;9.642;2022-08-19T14:01:31;18.10;99.90
11087;DHT22;5597;47.588;9.642;2022-08-19T14:03:57;18.20;99.90
11087;DHT22;5597;47.588;9.642;2022-08-19T14:06:22;18.20;99.90
11087;DHT22;5597;47.588;9.642;2022-08-19T14:08:48;18.20;99.90
11087;DHT22;5597;47.588;9.642;2022-08-19T14:11:14;18.20;99.90
11087;DHT22;5597;47.588;9.642;2022-08-19T14:13:40;18.20;99.90
11087;DHT22;5597;47.588;9.642;2022-08-19T14:16:10;18.20;99.90
11087;DHT22;5597;47.588;9.642;2022-08-19T14:18:36;18.20;99.90
11087;DHT22;5597;47.588;9.642;2022-08-19T14:21:04;18.10;99.90
11087;DHT22;5597;47.588;9.642;2022-08-19T14:23:31;18.10;99.90
11087;DHT22;5597;47.588;9.642;2022-08-19T14:26:08;18.10;99.90
11087;DHT22;5597;47.588;9.642;2022-08-19T14:28:35;18.10;99.90
11087;DHT22;5597;47.588;9.642;2022-08-19T14:31:00;18.10;99.90
11087;DHT22;5597;47.588;9.642;2022-08-19T14:33:26;18.10;99.90
11087;DHT22;5597;47.588;9.642;2022-08-19T14:35:51;18.10;99.90
11087;DHT22;5597;47.588;9.642;2022-08-19T14:38:18;18.20;99.90
11087;DHT22;5597;47.588;9.642;2022-08-19T14:40:44;18.10;99.90
11087;DHT22;5597;47.588;9.642;2022-08-19T14:43:11;18.20;99.90
11087;DHT22;5597;47.588;9.642;2022-08-19T14:45:38;18.20;99.90
11087;DHT22;5597;47.588;9.642;2022-08-19T14:48:05;18.20;99.90
11087;DHT22;5597;47.588;9.642;2022-08-19T14:50:33;18.20;99.90
11087;DHT22;5597;47.588;9.642;2022-08-19T14:53:01;18.30;99.90
11087;DHT22;5597;47.588;9.642;2022-08-19T14:55:27;18.30;99.90
11087;DHT22;5597;47.588;9.642;2022-08-19T14:57:53;18.30;99.90
11087;DHT22;5597;47.588;9.642;2022-08-19T15:00:19;18.30;99.90
11087;DHT22;5597;47.588;9.642;2022-08-19T15:02:44;18.40;99.90
11087;DHT22;5597;47.588;9.642;2022-08-19T15:05:10;18.30;99.90
11087;DHT22;5597;47.588;9.642;2022-08-19T15:07:37;18.30;99.90
11087;DHT22;5597;47.588;9.642;2022-08-19T15:10:05;18.30;99.90
11087;DHT22;5597;47.588;9.642;2022-08-19T15:12:33;18.30;99.90
11087;DHT22;5597;47.588;9.642;2022-08-19T15:14:59;18.30;99.90
11087;DHT22;5597;47.588;9.642;2022-08-19T15:17:25;18.30;99.90
11087;DHT22;5597;47.588;9.642;2022-08-19T15:19:51;18.30;99.90
11087;DHT22;5597;47.588;9.642;2022-08-19T15:22:17;18.30;99.90
11087;DHT22;5597;47.588;9.642;2022-08-19T15:24:43;18.30;99.90
11087;DHT22;5597;47.588;9.642;2022-08-19T15:27:12;18.30;99.90
11087;DHT22;5597;47.588;9.642;2022-08-19T15:29:38;18.30;99.90
11087;DHT22;5597;47.588;9.642;2022-08-19T15:32:05;18.30;99.90
11087;DHT22;5597;47.588;9.642;2022-08-19T15:34:31;18.30;99.90
11087;DHT22;5597;47.588;9.642;2022-08-19T15:36:57;18.30;99.90
11087;DHT22;5597;47.588;9.642;2022-08-19T15:39:24;18.30;99.90
11087;DHT22;5597;47.588;9.642;2022-08-19T15:41:50;18.30;99.90
11087;DHT22;5597;47.588;9.642;2022-08-19T15:44:17;18.30;99.90
11087;DHT22;5597;47.588;9.642;2022-08-19T15:46:45;18.30;99.90
11087;DHT22;5597;47.588;9.642;2022-08-19T15:49:13;18.30;99.90
11087;DHT22;5597;47.588;9.642;2022-08-19T15:51:40;18.40;99.90
11087;DHT22;5597;47.588;9.642;2022-08-19T15:54:09;18.30;99.90
11087;DHT22;5597;47.588;9.642;2022-08-19T15:56:37;18.30;99.90